AFR703 DIAP-LFPG
Flight info
| Callsign | AFR703 |
|---|---|
| Flight time | N/A |
| Altitude | 30000 |
| Route | AD UG851 BKO UM122 BULIS DCT MABAP UR722 SAK UG5 KORIS L27 VJF DCT SVL DCT HIJ DCT RUSEM DCT SOTUK DCT USOKO DCT TLD DCT SIE DCT EDIGO DCT DGO DCT ABRIX DCT CNA DCT POI DCT PEPAX UT182 KEPER |
| Aircraft | B77W/H-SDE1E2E3FGHIJ2J3J4J5M1RWXY/LB1D1 |
Departure
| Time | N/A |
|---|---|
| Airport | Félix-Houphouët-Boigny International Airport (DIAP) |
Arrival
| Time | 2026-05-04 03:30 |
|---|---|
| Airport | Charles de Gaulle International Airport (LFPG) |
| Time | Latitude | Longitude | Altitude | Speed | Heading |
|---|---|---|---|---|---|
| 2026-05-04 01:41 | 37.66753 | -5.61700 | 30028 ft | 505 kts | 19° |
| 2026-05-04 01:42 | 37.67312 | -5.61359 | 30027 ft | 505 kts | 19° |
| 2026-05-04 01:42 | 37.73608 | -5.57531 | 30035 ft | 505 kts | 19° |
| 2026-05-04 01:43 | 37.79966 | -5.53664 | 30039 ft | 504 kts | 19° |
| 2026-05-04 01:43 | 37.86263 | -5.49824 | 30039 ft | 504 kts | 19° |
| 2026-05-04 01:44 | 37.92603 | -5.45948 | 30034 ft | 504 kts | 19° |
| 2026-05-04 01:44 | 37.98901 | -5.42089 | 30037 ft | 505 kts | 19° |
| 2026-05-04 01:45 | 38.05223 | -5.38208 | 30051 ft | 506 kts | 19° |
| 2026-05-04 01:45 | 38.14732 | -5.32358 | 30033 ft | 507 kts | 19° |
| 2026-05-04 01:46 | 38.21099 | -5.28429 | 30028 ft | 507 kts | 19° |
| 2026-05-04 01:46 | 38.27439 | -5.24509 | 30028 ft | 507 kts | 20° |
| 2026-05-04 01:47 | 38.33758 | -5.20596 | 30030 ft | 507 kts | 20° |
| 2026-05-04 01:47 | 38.40117 | -5.16649 | 30019 ft | 507 kts | 20° |
| 2026-05-04 01:48 | 38.46463 | -5.12704 | 30024 ft | 508 kts | 20° |
| 2026-05-04 01:48 | 38.52836 | -5.08879 | 30024 ft | 504 kts | 16° |
| 2026-05-04 01:49 | 38.59358 | -5.05534 | 30036 ft | 503 kts | 14° |
| 2026-05-04 01:49 | 38.65863 | -5.02278 | 30028 ft | 505 kts | 14° |
| 2026-05-04 01:50 | 38.72390 | -4.98957 | 30025 ft | 506 kts | 15° |
| 2026-05-04 01:50 | 38.78916 | -4.95597 | 30019 ft | 506 kts | 15° |
| 2026-05-04 01:51 | 38.85455 | -4.92222 | 30019 ft | 505 kts | 15° |
| 2026-05-04 01:51 | 38.91983 | -4.88850 | 30013 ft | 505 kts | 15° |
| 2026-05-04 01:52 | 38.98490 | -4.85483 | 30016 ft | 505 kts | 15° |
| 2026-05-04 01:52 | 39.04977 | -4.82119 | 30016 ft | 504 kts | 15° |
| 2026-05-04 01:53 | 39.11519 | -4.78714 | 30019 ft | 504 kts | 16° |
| 2026-05-04 01:53 | 39.18010 | -4.75327 | 30011 ft | 504 kts | 16° |
| 2026-05-04 01:54 | 39.24487 | -4.71951 | 30026 ft | 504 kts | 16° |
| 2026-05-04 01:54 | 39.30985 | -4.68567 | 30018 ft | 504 kts | 16° |
| 2026-05-04 01:55 | 39.37499 | -4.65165 | 30020 ft | 504 kts | 16° |
| 2026-05-04 01:55 | 39.43989 | -4.61767 | 30016 ft | 504 kts | 16° |
| 2026-05-04 01:56 | 39.50474 | -4.58364 | 30003 ft | 503 kts | 16° |
| 2026-05-04 01:56 | 39.56938 | -4.54965 | 30031 ft | 502 kts | 16° |
| 2026-05-04 01:57 | 39.63440 | -4.51540 | 30023 ft | 502 kts | 16° |
| 2026-05-04 01:57 | 39.69898 | -4.48131 | 30014 ft | 502 kts | 17° |
| 2026-05-04 01:58 | 39.76348 | -4.44718 | 30012 ft | 502 kts | 17° |
| 2026-05-04 01:58 | 39.82832 | -4.41272 | 30014 ft | 502 kts | 17° |
| 2026-05-04 01:59 | 39.89255 | -4.37818 | 30014 ft | 502 kts | 17° |
| 2026-05-04 01:59 | 39.95722 | -4.34336 | 30008 ft | 501 kts | 17° |
| 2026-05-04 02:00 | 40.02108 | -4.30703 | 30007 ft | 502 kts | 20° |
| 2026-05-04 02:00 | 40.08409 | -4.26799 | 30012 ft | 501 kts | 21° |
| 2026-05-04 02:01 | 40.14729 | -4.22870 | 29996 ft | 500 kts | 20° |
| 2026-05-04 02:01 | 40.21018 | -4.19004 | 30003 ft | 499 kts | 20° |
| 2026-05-04 02:02 | 40.27280 | -4.15172 | 29998 ft | 498 kts | 20° |
| 2026-05-04 02:02 | 40.33560 | -4.11326 | 30003 ft | 498 kts | 20° |
| 2026-05-04 02:03 | 40.39812 | -4.07484 | 30004 ft | 498 kts | 21° |
| 2026-05-04 02:03 | 40.45441 | -4.04018 | 30006 ft | 498 kts | 21° |
| 2026-05-04 02:04 | 40.51702 | -4.00152 | 30009 ft | 497 kts | 21° |
| 2026-05-04 02:04 | 40.57956 | -3.96285 | 30011 ft | 497 kts | 21° |
| 2026-05-04 02:05 | 40.64241 | -3.92390 | 30011 ft | 497 kts | 21° |
| 2026-05-04 02:05 | 40.70483 | -3.88513 | 30019 ft | 496 kts | 21° |
| 2026-05-04 02:06 | 40.76707 | -3.84640 | 30006 ft | 496 kts | 21° |
| 2026-05-04 02:06 | 40.82948 | -3.80748 | 29990 ft | 495 kts | 21° |
| 2026-05-04 02:07 | 40.89167 | -3.76862 | 30012 ft | 494 kts | 21° |
| 2026-05-04 02:07 | 40.95367 | -3.72978 | 30021 ft | 494 kts | 21° |
| 2026-05-04 02:08 | 41.01580 | -3.69078 | 30010 ft | 494 kts | 21° |
| 2026-05-04 02:08 | 41.07804 | -3.65164 | 30015 ft | 494 kts | 21° |
| 2026-05-04 02:09 | 41.13990 | -3.61266 | 30017 ft | 494 kts | 22° |
| 2026-05-04 02:09 | 41.20250 | -3.57627 | 30009 ft | 491 kts | 18° |
| 2026-05-04 02:10 | 41.26611 | -3.54223 | 30007 ft | 491 kts | 18° |
| 2026-05-04 02:10 | 41.32903 | -3.50827 | 30011 ft | 490 kts | 19° |
| 2026-05-04 02:11 | 41.39208 | -3.47369 | 30013 ft | 490 kts | 19° |
| 2026-05-04 02:11 | 41.45531 | -3.43885 | 30013 ft | 490 kts | 19° |
| 2026-05-04 02:12 | 41.51807 | -3.40426 | 30009 ft | 490 kts | 19° |
| 2026-05-04 02:12 | 41.58090 | -3.36963 | 30006 ft | 489 kts | 19° |
| 2026-05-04 02:13 | 41.64366 | -3.33497 | 30002 ft | 489 kts | 19° |
| 2026-05-04 02:13 | 41.70676 | -3.30003 | 30001 ft | 489 kts | 19° |
| 2026-05-04 02:14 | 41.76940 | -3.26527 | 29998 ft | 489 kts | 19° |
| 2026-05-04 02:14 | 41.83249 | -3.23019 | 29987 ft | 489 kts | 19° |
| 2026-05-04 02:15 | 41.89522 | -3.19523 | 30002 ft | 489 kts | 19° |
| 2026-05-04 02:15 | 41.95789 | -3.16022 | 30003 ft | 489 kts | 19° |
| 2026-05-04 02:16 | 42.02069 | -3.12507 | 30005 ft | 488 kts | 19° |
| 2026-05-04 02:16 | 42.08328 | -3.08996 | 29994 ft | 488 kts | 20° |
| 2026-05-04 02:17 | 42.14613 | -3.05464 | 29990 ft | 488 kts | 20° |
| 2026-05-04 02:17 | 42.20853 | -3.01948 | 29991 ft | 487 kts | 20° |
| 2026-05-04 02:18 | 42.27096 | -2.98425 | 29980 ft | 487 kts | 20° |
| 2026-05-04 02:18 | 42.33370 | -2.94873 | 29990 ft | 486 kts | 20° |
| 2026-05-04 02:19 | 42.39597 | -2.91342 | 29984 ft | 486 kts | 20° |
| 2026-05-04 02:19 | 42.45829 | -2.87732 | 29998 ft | 486 kts | 24° |
| 2026-05-04 02:20 | 42.51764 | -2.83377 | 29990 ft | 487 kts | 27° |
| 2026-05-04 02:20 | 42.57677 | -2.78828 | 29992 ft | 487 kts | 28° |
| 2026-05-04 02:21 | 42.63537 | -2.74341 | 29987 ft | 487 kts | 27° |
| 2026-05-04 02:21 | 42.69474 | -2.69828 | 29995 ft | 487 kts | 27° |
| 2026-05-04 02:22 | 42.75385 | -2.65339 | 29994 ft | 487 kts | 27° |
| 2026-05-04 02:22 | 42.81279 | -2.60852 | 29991 ft | 488 kts | 27° |
| 2026-05-04 02:23 | 42.86233 | -2.57073 | 29995 ft | 488 kts | 27° |
| 2026-05-04 02:23 | 42.93149 | -2.51782 | 29995 ft | 488 kts | 28° |
| 2026-05-04 02:24 | 42.98053 | -2.48022 | 29991 ft | 488 kts | 28° |
| 2026-05-04 02:24 | 43.03975 | -2.43472 | 29976 ft | 488 kts | 28° |
| 2026-05-04 02:25 | 43.09874 | -2.38930 | 29979 ft | 487 kts | 28° |
| 2026-05-04 02:25 | 43.15783 | -2.34371 | 29984 ft | 486 kts | 28° |
| 2026-05-04 02:26 | 43.21643 | -2.29839 | 29974 ft | 485 kts | 28° |
| 2026-05-04 02:26 | 43.27537 | -2.25270 | 29980 ft | 484 kts | 28° |
| 2026-05-04 02:27 | 43.33379 | -2.20731 | 29972 ft | 484 kts | 28° |
| 2026-05-04 02:27 | 43.39249 | -2.16161 | 29971 ft | 484 kts | 28° |
| 2026-05-04 02:28 | 43.45092 | -2.11602 | 29972 ft | 484 kts | 29° |
| 2026-05-04 02:28 | 43.50947 | -2.07022 | 29971 ft | 483 kts | 29° |
| 2026-05-04 02:29 | 43.56783 | -2.02446 | 29966 ft | 483 kts | 29° |
| 2026-05-04 02:29 | 43.62498 | -1.97957 | 29965 ft | 483 kts | 29° |
| 2026-05-04 02:30 | 43.68325 | -1.93370 | 29965 ft | 483 kts | 29° |
| 2026-05-04 02:30 | 43.74153 | -1.88771 | 29962 ft | 483 kts | 29° |
| 2026-05-04 02:31 | 43.80002 | -1.84144 | 29958 ft | 483 kts | 29° |
| 2026-05-04 02:31 | 43.85819 | -1.79532 | 29958 ft | 482 kts | 29° |
| 2026-05-04 02:32 | 43.91629 | -1.74914 | 29953 ft | 482 kts | 30° |
| 2026-05-04 02:32 | 43.97472 | -1.70259 | 29949 ft | 482 kts | 30° |
| 2026-05-04 02:33 | 44.03286 | -1.65617 | 29948 ft | 482 kts | 30° |
| 2026-05-04 02:33 | 44.09091 | -1.60972 | 29945 ft | 482 kts | 30° |
| 2026-05-04 02:34 | 44.14890 | -1.56321 | 29942 ft | 482 kts | 30° |
| 2026-05-04 02:34 | 44.20709 | -1.51643 | 29943 ft | 482 kts | 30° |
| 2026-05-04 02:35 | 44.26504 | -1.46973 | 29940 ft | 481 kts | 30° |
| 2026-05-04 02:35 | 44.32289 | -1.42302 | 29939 ft | 481 kts | 30° |
| 2026-05-04 02:36 | 44.38070 | -1.37622 | 29939 ft | 481 kts | 30° |
| 2026-05-04 02:36 | 44.43844 | -1.32937 | 29938 ft | 481 kts | 30° |
| 2026-05-04 02:37 | 44.49648 | -1.28217 | 29939 ft | 480 kts | 31° |
| 2026-05-04 02:37 | 44.55400 | -1.23529 | 29940 ft | 480 kts | 31° |
| 2026-05-04 02:38 | 44.61203 | -1.18788 | 29939 ft | 480 kts | 31° |
| 2026-05-04 02:38 | 44.66950 | -1.14081 | 29939 ft | 480 kts | 31° |
| 2026-05-04 02:39 | 44.72696 | -1.09365 | 29935 ft | 480 kts | 31° |
| 2026-05-04 02:39 | 44.78419 | -1.04657 | 29936 ft | 480 kts | 31° |
| 2026-05-04 02:40 | 44.84165 | -0.99918 | 29936 ft | 479 kts | 31° |
| 2026-05-04 02:40 | 44.89940 | -0.95145 | 29938 ft | 479 kts | 31° |
| 2026-05-04 02:41 | 44.95673 | -0.90395 | 29939 ft | 478 kts | 31° |
| 2026-05-04 02:41 | 45.01422 | -0.85621 | 29938 ft | 478 kts | 31° |
| 2026-05-04 02:42 | 45.07149 | -0.80853 | 29938 ft | 478 kts | 32° |
| 2026-05-04 02:42 | 45.12864 | -0.76085 | 29937 ft | 478 kts | 32° |
| 2026-05-04 02:43 | 45.18609 | -0.71280 | 29940 ft | 479 kts | 32° |
| 2026-05-04 02:43 | 45.24349 | -0.66468 | 29939 ft | 480 kts | 32° |
| 2026-05-04 02:44 | 45.30087 | -0.61646 | 29943 ft | 480 kts | 32° |
| 2026-05-04 02:44 | 45.35821 | -0.56816 | 29942 ft | 482 kts | 32° |
| 2026-05-04 02:45 | 45.41616 | -0.51923 | 29945 ft | 483 kts | 32° |
| 2026-05-04 02:45 | 45.47373 | -0.47050 | 29941 ft | 483 kts | 32° |
| 2026-05-04 02:46 | 45.53142 | -0.42155 | 29937 ft | 484 kts | 32° |
| 2026-05-04 02:46 | 45.58949 | -0.37216 | 29937 ft | 484 kts | 32° |
| 2026-05-04 02:47 | 45.64707 | -0.32309 | 29935 ft | 483 kts | 31° |
| 2026-05-04 02:47 | 45.70700 | -0.27989 | 29940 ft | 484 kts | 25° |
| 2026-05-04 02:48 | 45.76874 | -0.24037 | 29941 ft | 484 kts | 24° |
| 2026-05-04 02:48 | 45.82982 | -0.20114 | 29944 ft | 484 kts | 24° |
| 2026-05-04 02:49 | 45.89136 | -0.16100 | 29943 ft | 484 kts | 25° |
| 2026-05-04 02:49 | 45.95263 | -0.12072 | 29944 ft | 485 kts | 25° |
| 2026-05-04 02:50 | 46.01380 | -0.08039 | 29950 ft | 485 kts | 25° |
| 2026-05-04 02:50 | 46.07545 | -0.03967 | 29953 ft | 485 kts | 25° |
| 2026-05-04 02:51 | 46.13658 | 0.00079 | 29949 ft | 486 kts | 25° |
| 2026-05-04 02:51 | 46.19819 | 0.04166 | 29963 ft | 486 kts | 25° |
| 2026-05-04 02:52 | 46.25949 | 0.08244 | 29957 ft | 486 kts | 25° |
| 2026-05-04 02:52 | 46.32101 | 0.12347 | 29965 ft | 485 kts | 25° |
| 2026-05-04 02:53 | 46.38230 | 0.16444 | 29956 ft | 485 kts | 25° |
| 2026-05-04 02:53 | 46.44332 | 0.20533 | 29969 ft | 484 kts | 25° |
| 2026-05-04 02:54 | 46.50432 | 0.24632 | 29961 ft | 484 kts | 25° |
| 2026-05-04 02:54 | 46.56582 | 0.28697 | 29961 ft | 483 kts | 21° |
| 2026-05-04 02:55 | 46.66276 | 0.32458 | 29969 ft | 481 kts | 10° |
| 2026-05-04 02:56 | 46.72803 | 0.34365 | 29968 ft | 481 kts | 10° |
| 2026-05-04 02:56 | 46.79392 | 0.36358 | 29960 ft | 482 kts | 11° |
| 2026-05-04 02:57 | 46.85946 | 0.38389 | 29960 ft | 482 kts | 11° |
| 2026-05-04 02:57 | 46.92483 | 0.40425 | 29957 ft | 482 kts | 11° |
| 2026-05-04 02:58 | 46.99076 | 0.42480 | 29964 ft | 482 kts | 11° |
| 2026-05-04 02:58 | 47.05635 | 0.44294 | 29962 ft | 481 kts | 4° |
| 2026-05-04 02:59 | 47.12275 | 0.44346 | 29955 ft | 477 kts | 352° |
| 2026-05-04 02:59 | 47.18838 | 0.42829 | 29964 ft | 476 kts | 347° |
| 2026-05-04 03:00 | 47.25352 | 0.41126 | 29965 ft | 477 kts | 347° |
| 2026-05-04 03:00 | 47.31932 | 0.39476 | 29965 ft | 478 kts | 347° |
| 2026-05-04 03:01 | 47.38475 | 0.37872 | 29963 ft | 479 kts | 347° |
| 2026-05-04 03:01 | 47.45028 | 0.36263 | 29649 ft | 477 kts | 347° |
| 2026-05-04 03:01 | 47.48322 | 0.35448 | 28816 ft | 482 kts | 348° |
| 2026-05-04 03:02 | 47.51593 | 0.34638 | 28303 ft | 477 kts | 348° |
| 2026-05-04 03:02 | 47.54888 | 0.33822 | 27773 ft | 471 kts | 348° |
| 2026-05-04 03:02 | 47.58062 | 0.33034 | 27304 ft | 465 kts | 348° |
| 2026-05-04 03:02 | 47.61270 | 0.32236 | 26822 ft | 460 kts | 348° |
| 2026-05-04 03:03 | 47.64378 | 0.31461 | 26355 ft | 456 kts | 348° |
| 2026-05-04 03:03 | 47.67468 | 0.30689 | 25893 ft | 451 kts | 348° |
| 2026-05-04 03:03 | 47.70560 | 0.29916 | 25439 ft | 447 kts | 348° |
| 2026-05-04 03:03 | 47.73619 | 0.29151 | 24986 ft | 447 kts | 348° |
| 2026-05-04 03:04 | 47.76770 | 0.28379 | 24540 ft | 475 kts | 351° |
| 2026-05-04 03:04 | 47.80207 | 0.28449 | 24020 ft | 511 kts | 9° |
| 2026-05-04 03:04 | 47.83612 | 0.30147 | 23749 ft | 510 kts | 28° |
| 2026-05-04 03:04 | 47.86472 | 0.33045 | 23358 ft | 495 kts | 39° |
| 2026-05-04 03:05 | 47.89168 | 0.36197 | 22781 ft | 484 kts | 39° |
| 2026-05-04 03:05 | 47.91825 | 0.39140 | 22382 ft | 473 kts | 37° |
| 2026-05-04 03:05 | 47.94491 | 0.41952 | 22004 ft | 462 kts | 36° |
| 2026-05-04 03:05 | 47.97073 | 0.44640 | 21652 ft | 451 kts | 36° |
| 2026-05-04 03:06 | 47.99617 | 0.47291 | 21320 ft | 442 kts | 36° |
| 2026-05-04 03:06 | 48.02127 | 0.49919 | 20979 ft | 433 kts | 36° |
| 2026-05-04 03:06 | 48.04571 | 0.52486 | 20637 ft | 424 kts | 36° |
| 2026-05-04 03:06 | 48.06935 | 0.54976 | 20474 ft | 412 kts | 36° |
| 2026-05-04 03:07 | 48.09277 | 0.57445 | 20053 ft | 408 kts | 36° |
| 2026-05-04 03:07 | 48.11583 | 0.59880 | 19745 ft | 402 kts | 36° |
| 2026-05-04 03:07 | 48.13834 | 0.62259 | 19417 ft | 395 kts | 36° |
| 2026-05-04 03:07 | 48.16071 | 0.64628 | 19105 ft | 389 kts | 36° |
| 2026-05-04 03:08 | 48.18260 | 0.66948 | 18814 ft | 385 kts | 35° |
| 2026-05-04 03:08 | 48.20444 | 0.69265 | 18515 ft | 382 kts | 35° |
| 2026-05-04 03:08 | 48.22582 | 0.71537 | 18217 ft | 379 kts | 35° |
| 2026-05-04 03:08 | 48.24736 | 0.73827 | 17882 ft | 376 kts | 35° |
| 2026-05-04 03:09 | 48.26846 | 0.76073 | 17580 ft | 373 kts | 35° |
| 2026-05-04 03:09 | 48.28964 | 0.78329 | 17283 ft | 369 kts | 35° |
| 2026-05-04 03:09 | 48.30353 | 0.79810 | 17094 ft | 367 kts | 35° |
| 2026-05-04 03:09 | 48.32427 | 0.82024 | 16813 ft | 364 kts | 36° |
| 2026-05-04 03:10 | 48.34420 | 0.84348 | 16518 ft | 360 kts | 46° |
| 2026-05-04 03:10 | 48.35821 | 0.87400 | 16274 ft | 360 kts | 64° |
| 2026-05-04 03:10 | 48.36953 | 0.90819 | 16005 ft | 366 kts | 65° |
| 2026-05-04 03:10 | 48.38099 | 0.94253 | 15702 ft | 366 kts | 64° |
| 2026-05-04 03:11 | 48.39247 | 0.97614 | 15426 ft | 363 kts | 64° |
| 2026-05-04 03:11 | 48.40413 | 1.00991 | 15143 ft | 361 kts | 64° |
| 2026-05-04 03:11 | 48.41572 | 1.04340 | 14843 ft | 360 kts | 64° |
| 2026-05-04 03:11 | 48.42730 | 1.07697 | 14505 ft | 359 kts | 64° |
| 2026-05-04 03:12 | 48.43867 | 1.10999 | 14171 ft | 357 kts | 64° |
| 2026-05-04 03:12 | 48.44993 | 1.14274 | 13843 ft | 353 kts | 64° |
| 2026-05-04 03:12 | 48.46120 | 1.17556 | 13474 ft | 349 kts | 64° |
| 2026-05-04 03:12 | 48.47217 | 1.20754 | 13141 ft | 344 kts | 64° |
| 2026-05-04 03:13 | 48.48316 | 1.23962 | 12802 ft | 341 kts | 64° |
| 2026-05-04 03:13 | 48.49388 | 1.27094 | 12491 ft | 336 kts | 64° |
| 2026-05-04 03:13 | 48.50456 | 1.30217 | 12163 ft | 332 kts | 64° |
| 2026-05-04 03:13 | 48.51507 | 1.33296 | 11907 ft | 326 kts | 64° |
| 2026-05-04 03:14 | 48.52527 | 1.36267 | 11736 ft | 317 kts | 64° |
| 2026-05-04 03:14 | 48.53530 | 1.39185 | 11571 ft | 309 kts | 64° |
| 2026-05-04 03:14 | 48.54522 | 1.42075 | 11419 ft | 307 kts | 64° |
| 2026-05-04 03:14 | 48.55495 | 1.44915 | 11271 ft | 307 kts | 64° |
| 2026-05-04 03:15 | 48.56479 | 1.47793 | 11104 ft | 307 kts | 64° |
| 2026-05-04 03:15 | 48.57679 | 1.50429 | 10927 ft | 304 kts | 43° |
| 2026-05-04 03:15 | 48.59421 | 1.52147 | 10742 ft | 301 kts | 25° |
| 2026-05-04 03:15 | 48.61322 | 1.53519 | 10571 ft | 303 kts | 25° |
| 2026-05-04 03:16 | 48.63244 | 1.54900 | 10364 ft | 306 kts | 25° |
| 2026-05-04 03:16 | 48.65149 | 1.56280 | 10170 ft | 307 kts | 25° |
| 2026-05-04 03:16 | 48.67064 | 1.57679 | 9963 ft | 302 kts | 26° |
| 2026-05-04 03:16 | 48.68944 | 1.59061 | 9728 ft | 296 kts | 26° |
| 2026-05-04 03:17 | 48.70760 | 1.60402 | 9534 ft | 290 kts | 26° |
| 2026-05-04 03:17 | 48.72565 | 1.61739 | 9335 ft | 286 kts | 26° |
| 2026-05-04 03:17 | 48.74334 | 1.63052 | 9159 ft | 284 kts | 26° |
| 2026-05-04 03:17 | 48.76037 | 1.64549 | 8928 ft | 279 kts | 44° |
| 2026-05-04 03:18 | 48.77191 | 1.66855 | 8819 ft | 280 kts | 58° |
| 2026-05-04 03:18 | 48.78252 | 1.69401 | 8620 ft | 287 kts | 58° |
| 2026-05-04 03:18 | 48.79323 | 1.71971 | 8443 ft | 286 kts | 58° |
| 2026-05-04 03:18 | 48.80374 | 1.74488 | 8237 ft | 284 kts | 58° |
| 2026-05-04 03:19 | 48.81439 | 1.77030 | 8061 ft | 281 kts | 58° |
| 2026-05-04 03:19 | 48.82491 | 1.79535 | 7851 ft | 279 kts | 58° |
| 2026-05-04 03:19 | 48.83518 | 1.81979 | 7686 ft | 277 kts | 58° |
| 2026-05-04 03:19 | 48.84552 | 1.84436 | 7513 ft | 275 kts | 58° |
| 2026-05-04 03:20 | 48.85585 | 1.86893 | 7324 ft | 273 kts | 58° |
| 2026-05-04 03:20 | 48.86597 | 1.89298 | 7153 ft | 272 kts | 58° |
| 2026-05-04 03:20 | 48.87610 | 1.91706 | 6978 ft | 271 kts | 58° |
| 2026-05-04 03:20 | 48.88635 | 1.94146 | 6792 ft | 271 kts | 58° |
| 2026-05-04 03:21 | 48.88884 | 1.94739 | 6756 ft | 271 kts | 58° |
| 2026-05-04 03:21 | 48.89451 | 1.96089 | 6662 ft | 271 kts | 58° |
| 2026-05-04 03:22 | 48.90413 | 1.98382 | 6492 ft | 271 kts | 58° |
| 2026-05-04 03:22 | 48.91433 | 2.00814 | 6345 ft | 268 kts | 58° |
| 2026-05-04 03:22 | 48.92418 | 2.03166 | 6134 ft | 263 kts | 58° |
| 2026-05-04 03:22 | 48.93395 | 2.05498 | 5958 ft | 258 kts | 58° |
| 2026-05-04 03:23 | 48.94354 | 2.07790 | 5765 ft | 252 kts | 58° |
| 2026-05-04 03:23 | 48.95270 | 2.09981 | 5605 ft | 245 kts | 58° |
| 2026-05-04 03:23 | 48.96177 | 2.12152 | 5441 ft | 239 kts | 58° |
| 2026-05-04 03:23 | 48.96826 | 2.14380 | 5295 ft | 224 kts | 79° |
| 2026-05-04 03:24 | 48.97088 | 2.16656 | 5168 ft | 213 kts | 84° |
| 2026-05-04 03:24 | 48.97253 | 2.18809 | 5123 ft | 202 kts | 86° |
| 2026-05-04 03:24 | 48.97381 | 2.20941 | 4927 ft | 200 kts | 86° |
| 2026-05-04 03:24 | 48.97494 | 2.23004 | 4658 ft | 190 kts | 87° |
| 2026-05-04 03:25 | 48.97601 | 2.24978 | 4416 ft | 190 kts | 87° |
| 2026-05-04 03:25 | 48.97708 | 2.26985 | 4156 ft | 186 kts | 86° |
| 2026-05-04 03:25 | 48.97810 | 2.28885 | 3895 ft | 174 kts | 86° |
| 2026-05-04 03:25 | 48.97904 | 2.30639 | 3661 ft | 162 kts | 86° |
| 2026-05-04 03:26 | 48.97995 | 2.32347 | 3479 ft | 161 kts | 86° |
| 2026-05-04 03:26 | 48.98084 | 2.34027 | 3301 ft | 160 kts | 86° |
| 2026-05-04 03:26 | 48.98175 | 2.35728 | 3081 ft | 159 kts | 86° |
| 2026-05-04 03:26 | 48.98265 | 2.37405 | 2843 ft | 158 kts | 86° |
| 2026-05-04 03:27 | 48.98354 | 2.39075 | 2629 ft | 158 kts | 85° |
| 2026-05-04 03:27 | 48.98442 | 2.40722 | 2432 ft | 158 kts | 85° |
| 2026-05-04 03:27 | 48.98531 | 2.42384 | 2205 ft | 158 kts | 85° |
| 2026-05-04 03:27 | 48.98621 | 2.44062 | 1996 ft | 157 kts | 85° |
| 2026-05-04 03:28 | 48.98709 | 2.45704 | 1794 ft | 157 kts | 85° |
| 2026-05-04 03:28 | 48.98797 | 2.47359 | 1572 ft | 156 kts | 85° |
| 2026-05-04 03:28 | 48.98885 | 2.49000 | 1359 ft | 154 kts | 85° |
| 2026-05-04 03:28 | 48.98971 | 2.50596 | 1147 ft | 152 kts | 85° |
| 2026-05-04 03:29 | 48.99056 | 2.52187 | 942 ft | 149 kts | 85° |
| 2026-05-04 03:29 | 48.99145 | 2.53757 | 733 ft | 148 kts | 84° |
| 2026-05-04 03:29 | 48.99231 | 2.55298 | 537 ft | 146 kts | 86° |
| 2026-05-04 03:29 | 48.99310 | 2.56846 | 376 ft | 146 kts | 84° |
| 2026-05-04 03:30 | 48.99386 | 2.58275 | 365 ft | 117 kts | 85° |
| 2026-05-04 03:30 | 48.99443 | 2.59266 | 360 ft | 73 kts | 85° |
| 2026-05-04 03:30 | 48.99474 | 2.59807 | 363 ft | 34 kts | 79° |
| 2026-05-04 03:30 | 48.99566 | 2.59961 | 365 ft | 16 kts | 20° |
| 2026-05-04 03:31 | 48.99673 | 2.59973 | 358 ft | 16 kts | 356° |
| 2026-05-04 03:31 | 48.99782 | 2.59961 | 367 ft | 16 kts | 356° |
| 2026-05-04 03:31 | 48.99886 | 2.59997 | 367 ft | 16 kts | 39° |
| 2026-05-04 03:31 | 48.99979 | 2.60072 | 363 ft | 14 kts | 2° |
| 2026-05-04 03:32 | 49.00013 | 2.60002 | 362 ft | 9 kts | 264° |
| 2026-05-04 03:32 | 49.00007 | 2.59902 | 361 ft | 10 kts | 265° |
| 2026-05-04 03:32 | 49.00001 | 2.59795 | 367 ft | 11 kts | 265° |
| 2026-05-04 03:32 | 48.99995 | 2.59669 | 362 ft | 13 kts | 265° |
| 2026-05-04 03:33 | 48.99986 | 2.59504 | 365 ft | 20 kts | 265° |
| 2026-05-04 03:33 | 48.99974 | 2.59295 | 365 ft | 20 kts | 265° |
| 2026-05-04 03:33 | 48.99964 | 2.59081 | 359 ft | 20 kts | 266° |
| 2026-05-04 03:33 | 48.99954 | 2.58869 | 360 ft | 20 kts | 265° |
| 2026-05-04 03:34 | 48.99941 | 2.58657 | 364 ft | 20 kts | 265° |
| 2026-05-04 03:34 | 48.99929 | 2.58447 | 366 ft | 20 kts | 265° |
| 2026-05-04 03:34 | 48.99990 | 2.58292 | 364 ft | 14 kts | 349° |
| 2026-05-04 03:34 | 49.00076 | 2.58283 | 368 ft | 11 kts | 314° |
| 2026-05-04 03:35 | 49.00086 | 2.58170 | 364 ft | 12 kts | 267° |
| 2026-05-04 03:35 | 49.00088 | 2.58052 | 365 ft | 9 kts | 300° |
| 2026-05-04 03:35 | 49.00139 | 2.58022 | 363 ft | 5 kts | 353° |
| 2026-05-04 03:35 | 49.00149 | 2.58021 | 361 ft | 0 kts | 355° |